sensor_id;sensor_type;location;lat;lon;timestamp;temperature;humidity
16404;DHT22;8311;50.158;8.642;2022-10-16T00:02:13;19.40;54.00
16404;DHT22;8311;50.158;8.642;2022-10-16T00:05:06;19.40;53.90
16404;DHT22;8311;50.158;8.642;2022-10-16T00:08:00;19.40;53.90
16404;DHT22;8311;50.158;8.642;2022-10-16T00:11:00;19.30;53.90
16404;DHT22;8311;50.158;8.642;2022-10-16T00:13:56;19.40;54.00
16404;DHT22;8311;50.158;8.642;2022-10-16T00:16:49;19.40;54.00
16404;DHT22;8311;50.158;8.642;2022-10-16T00:19:42;19.40;53.90
16404;DHT22;8311;50.158;8.642;2022-10-16T00:22:35;19.40;54.00
16404;DHT22;8311;50.158;8.642;2022-10-16T00:25:28;19.40;54.00
16404;DHT22;8311;50.158;8.642;2022-10-16T00:28:26;19.40;53.90
16404;DHT22;8311;50.158;8.642;2022-10-16T00:31:21;19.40;53.90
16404;DHT22;8311;50.158;8.642;2022-10-16T00:34:13;19.40;54.00
16404;DHT22;8311;50.158;8.642;2022-10-16T00:37:06;19.40;53.90
16404;DHT22;8311;50.158;8.642;2022-10-16T00:39:59;19.40;53.90
16404;DHT22;8311;50.158;8.642;2022-10-16T00:42:52;19.40;54.00
16404;DHT22;8311;50.158;8.642;2022-10-16T00:45:47;19.40;53.90
16404;DHT22;8311;50.158;8.642;2022-10-16T00:48:40;19.40;53.90
16404;DHT22;8311;50.158;8.642;2022-10-16T00:51:35;19.40;53.90
16404;DHT22;8311;50.158;8.642;2022-10-16T00:54:30;19.40;53.90
16404;DHT22;8311;50.158;8.642;2022-10-16T00:57:24;19.40;53.90
16404;DHT22;8311;50.158;8.642;2022-10-16T01:00:21;19.40;54.00
16404;DHT22;8311;50.158;8.642;2022-10-16T01:03:34;19.40;54.00
16404;DHT22;8311;50.158;8.642;2022-10-16T01:06:34;19.40;54.50
16404;DHT22;8311;50.158;8.642;2022-10-16T01:09:35;19.40;53.90
16404;DHT22;8311;50.158;8.642;2022-10-16T01:12:38;19.40;53.90
16404;DHT22;8311;50.158;8.642;2022-10-16T01:15:43;19.40;53.90
16404;DHT22;8311;50.158;8.642;2022-10-16T01:18:44;19.40;53.90
16404;DHT22;8311;50.158;8.642;2022-10-16T01:21:40;19.40;53.90
16404;DHT22;8311;50.158;8.642;2022-10-16T01:24:39;19.40;53.90
16404;DHT22;8311;50.158;8.642;2022-10-16T01:27:35;19.40;53.90
16404;DHT22;8311;50.158;8.642;2022-10-16T01:30:30;19.40;53.90
16404;DHT22;8311;50.158;8.642;2022-10-16T01:33:28;19.40;53.90
16404;DHT22;8311;50.158;8.642;2022-10-16T01:36:25;19.40;53.90
16404;DHT22;8311;50.158;8.642;2022-10-16T01:39:22;19.40;53.90
16404;DHT22;8311;50.158;8.642;2022-10-16T01:42:19;19.40;53.90
16404;DHT22;8311;50.158;8.642;2022-10-16T01:45:15;19.40;53.90
16404;DHT22;8311;50.158;8.642;2022-10-16T01:48:12;19.40;53.90
16404;DHT22;8311;50.158;8.642;2022-10-16T01:51:07;19.40;53.90
16404;DHT22;8311;50.158;8.642;2022-10-16T01:54:02;19.30;53.90
16404;DHT22;8311;50.158;8.642;2022-10-16T01:56:58;19.40;53.90
16404;DHT22;8311;50.158;8.642;2022-10-16T01:59:54;19.40;53.90
16404;DHT22;8311;50.158;8.642;2022-10-16T02:02:52;19.40;54.50
16404;DHT22;8311;50.158;8.642;2022-10-16T02:05:50;19.40;53.90
16404;DHT22;8311;50.158;8.642;2022-10-16T02:08:44;19.40;54.50
16404;DHT22;8311;50.158;8.642;2022-10-16T02:11:37;19.40;53.90
16404;DHT22;8311;50.158;8.642;2022-10-16T02:14:31;19.40;53.90
16404;DHT22;8311;50.158;8.642;2022-10-16T02:17:25;19.40;53.90
16404;DHT22;8311;50.158;8.642;2022-10-16T02:20:25;19.40;53.90
16404;DHT22;8311;50.158;8.642;2022-10-16T02:23:23;19.40;53.90
16404;DHT22;8311;50.158;8.642;2022-10-16T02:26:24;19.40;53.90
16404;DHT22;8311;50.158;8.642;2022-10-16T02:29:22;19.40;53.90
16404;DHT22;8311;50.158;8.642;2022-10-16T02:32:20;19.40;53.90
16404;DHT22;8311;50.158;8.642;2022-10-16T02:35:17;19.40;53.90
16404;DHT22;8311;50.158;8.642;2022-10-16T02:38:13;19.40;53.90
16404;DHT22;8311;50.158;8.642;2022-10-16T02:41:07;19.40;53.90
16404;DHT22;8311;50.158;8.642;2022-10-16T02:44:01;19.40;53.90
16404;DHT22;8311;50.158;8.642;2022-10-16T02:46:54;19.40;53.90
16404;DHT22;8311;50.158;8.642;2022-10-16T02:49:46;19.40;53.90
16404;DHT22;8311;50.158;8.642;2022-10-16T02:52:40;19.40;53.90
16404;DHT22;8311;50.158;8.642;2022-10-16T02:55:34;19.40;53.90
16404;DHT22;8311;50.158;8.642;2022-10-16T02:58:26;19.40;53.90
16404;DHT22;8311;50.158;8.642;2022-10-16T03:01:20;19.40;53.90
16404;DHT22;8311;50.158;8.642;2022-10-16T03:04:12;19.40;53.90
16404;DHT22;8311;50.158;8.642;2022-10-16T03:07:06;19.40;53.90
16404;DHT22;8311;50.158;8.642;2022-10-16T03:09:58;19.40;53.90
16404;DHT22;8311;50.158;8.642;2022-10-16T03:12:54;19.40;53.90
16404;DHT22;8311;50.158;8.642;2022-10-16T03:15:47;19.40;53.90
16404;DHT22;8311;50.158;8.642;2022-10-16T03:18:40;19.40;53.90
16404;DHT22;8311;50.158;8.642;2022-10-16T03:21:33;19.40;53.90
16404;DHT22;8311;50.158;8.642;2022-10-16T03:24:27;19.40;53.90
16404;DHT22;8311;50.158;8.642;2022-10-16T03:27:19;19.40;53.90
16404;DHT22;8311;50.158;8.642;2022-10-16T03:30:14;19.40;53.90
16404;DHT22;8311;50.158;8.642;2022-10-16T03:33:07;19.40;53.90
16404;DHT22;8311;50.158;8.642;2022-10-16T03:36:01;19.40;53.90
16404;DHT22;8311;50.158;8.642;2022-10-16T03:38:54;19.40;53.90
16404;DHT22;8311;50.158;8.642;2022-10-16T03:41:47;19.40;53.90
16404;DHT22;8311;50.158;8.642;2022-10-16T03:44:40;19.40;53.90
16404;DHT22;8311;50.158;8.642;2022-10-16T03:47:35;19.40;53.90
16404;DHT22;8311;50.158;8.642;2022-10-16T03:50:29;19.40;53.90
16404;DHT22;8311;50.158;8.642;2022-10-16T03:53:22;19.40;53.90
16404;DHT22;8311;50.158;8.642;2022-10-16T03:56:14;19.40;53.90
16404;DHT22;8311;50.158;8.642;2022-10-16T03:59:07;19.40;53.90
16404;DHT22;8311;50.158;8.642;2022-10-16T04:02:01;19.40;53.90
16404;DHT22;8311;50.158;8.642;2022-10-16T04:04:55;19.40;53.90
16404;DHT22;8311;50.158;8.642;2022-10-16T04:07:47;19.40;53.90
16404;DHT22;8311;50.158;8.642;2022-10-16T04:10:42;19.40;53.90
16404;DHT22;8311;50.158;8.642;2022-10-16T04:13:36;19.40;53.90
16404;DHT22;8311;50.158;8.642;2022-10-16T04:16:30;19.40;53.90
16404;DHT22;8311;50.158;8.642;2022-10-16T04:19:23;19.40;53.90
16404;DHT22;8311;50.158;8.642;2022-10-16T04:22:17;19.40;53.90
16404;DHT22;8311;50.158;8.642;2022-10-16T04:25:10;19.40;53.90
16404;DHT22;8311;50.158;8.642;2022-10-16T04:28:04;19.40;53.90
16404;DHT22;8311;50.158;8.642;2022-10-16T04:30:56;19.40;53.90
16404;DHT22;8311;50.158;8.642;2022-10-16T04:33:50;19.40;53.90
16404;DHT22;8311;50.158;8.642;2022-10-16T04:36:42;19.40;53.90
16404;DHT22;8311;50.158;8.642;2022-10-16T04:39:37;19.40;53.90
16404;DHT22;8311;50.158;8.642;2022-10-16T04:42:30;19.40;53.90
16404;DHT22;8311;50.158;8.642;2022-10-16T04:45:23;19.40;53.90
16404;DHT22;8311;50.158;8.642;2022-10-16T04:48:17;19.40;53.90
16404;DHT22;8311;50.158;8.642;2022-10-16T04:51:10;19.40;53.90
16404;DHT22;8311;50.158;8.642;2022-10-16T04:54:03;19.40;53.90
16404;DHT22;8311;50.158;8.642;2022-10-16T04:56:57;19.40;53.90
16404;DHT22;8311;50.158;8.642;2022-10-16T04:59:49;19.40;53.90
16404;DHT22;8311;50.158;8.642;2022-10-16T05:02:42;19.40;53.90
16404;DHT22;8311;50.158;8.642;2022-10-16T05:05:36;19.40;53.90
16404;DHT22;8311;50.158;8.642;2022-10-16T05:08:28;19.40;53.90
16404;DHT22;8311;50.158;8.642;2022-10-16T05:11:22;19.40;53.90
16404;DHT22;8311;50.158;8.642;2022-10-16T05:14:16;19.40;53.90
16404;DHT22;8311;50.158;8.642;2022-10-16T05:17:10;19.40;53.90
16404;DHT22;8311;50.158;8.642;2022-10-16T05:20:05;19.40;53.90
16404;DHT22;8311;50.158;8.642;2022-10-16T05:22:58;19.40;53.90
16404;DHT22;8311;50.158;8.642;2022-10-16T05:25:54;19.40;53.80
16404;DHT22;8311;50.158;8.642;2022-10-16T05:28:50;19.40;53.90
16404;DHT22;8311;50.158;8.642;2022-10-16T05:31:45;19.40;53.80
16404;DHT22;8311;50.158;8.642;2022-10-16T05:34:38;19.40;53.80
16404;DHT22;8311;50.158;8.642;2022-10-16T05:37:32;19.40;53.90
16404;DHT22;8311;50.158;8.642;2022-10-16T05:40:26;19.40;53.80
16404;DHT22;8311;50.158;8.642;2022-10-16T05:43:20;19.40;53.80
16404;DHT22;8311;50.158;8.642;2022-10-16T05:46:13;19.40;54.20
16404;DHT22;8311;50.158;8.642;2022-10-16T05:49:07;19.40;53.80
16404;DHT22;8311;50.158;8.642;2022-10-16T05:51:59;19.40;53.90
16404;DHT22;8311;50.158;8.642;2022-10-16T05:54:53;19.40;53.80
16404;DHT22;8311;50.158;8.642;2022-10-16T05:57:45;19.40;53.90
16404;DHT22;8311;50.158;8.642;2022-10-16T06:00:39;19.40;53.80
16404;DHT22;8311;50.158;8.642;2022-10-16T06:03:32;19.40;53.90
16404;DHT22;8311;50.158;8.642;2022-10-16T06:06:28;19.40;53.80
16404;DHT22;8311;50.158;8.642;2022-10-16T06:09:20;19.40;53.80
16404;DHT22;8311;50.158;8.642;2022-10-16T06:12:14;19.40;53.80
16404;DHT22;8311;50.158;8.642;2022-10-16T06:15:07;19.40;53.90
16404;DHT22;8311;50.158;8.642;2022-10-16T06:18:01;19.40;53.90
16404;DHT22;8311;50.158;8.642;2022-10-16T06:20:54;19.40;53.80
16404;DHT22;8311;50.158;8.642;2022-10-16T06:23:48;19.40;53.90
16404;DHT22;8311;50.158;8.642;2022-10-16T06:26:41;19.40;53.80
16404;DHT22;8311;50.158;8.642;2022-10-16T06:29:34;19.40;53.80
16404;DHT22;8311;50.158;8.642;2022-10-16T06:32:27;19.40;53.80
16404;DHT22;8311;50.158;8.642;2022-10-16T06:35:20;19.40;53.80
16404;DHT22;8311;50.158;8.642;2022-10-16T06:38:14;19.40;53.80
16404;DHT22;8311;50.158;8.642;2022-10-16T06:41:10;19.40;53.80
16404;DHT22;8311;50.158;8.642;2022-10-16T06:44:05;19.40;53.90
16404;DHT22;8311;50.158;8.642;2022-10-16T06:46:59;19.40;53.80
16404;DHT22;8311;50.158;8.642;2022-10-16T06:49:52;19.40;53.80
16404;DHT22;8311;50.158;8.642;2022-10-16T06:52:45;19.40;53.80
16404;DHT22;8311;50.158;8.642;2022-10-16T06:55:38;19.40;53.80
16404;DHT22;8311;50.158;8.642;2022-10-16T06:58:32;19.40;53.80
16404;DHT22;8311;50.158;8.642;2022-10-16T07:01:26;19.40;53.80
16404;DHT22;8311;50.158;8.642;2022-10-16T07:04:19;19.40;53.90
16404;DHT22;8311;50.158;8.642;2022-10-16T07:07:13;19.40;53.80
16404;DHT22;8311;50.158;8.642;2022-10-16T07:10:06;19.40;53.80
16404;DHT22;8311;50.158;8.642;2022-10-16T07:13:00;19.40;53.90
16404;DHT22;8311;50.158;8.642;2022-10-16T07:15:54;19.40;53.80
16404;DHT22;8311;50.158;8.642;2022-10-16T07:18:48;19.40;53.90
16404;DHT22;8311;50.158;8.642;2022-10-16T07:21:45;19.40;53.80
16404;DHT22;8311;50.158;8.642;2022-10-16T07:24:39;19.40;53.90
16404;DHT22;8311;50.158;8.642;2022-10-16T07:27:32;19.40;53.90
16404;DHT22;8311;50.158;8.642;2022-10-16T07:30:25;19.40;53.90
16404;DHT22;8311;50.158;8.642;2022-10-16T07:33:19;19.40;53.90
16404;DHT22;8311;50.158;8.642;2022-10-16T07:36:13;19.40;53.90
16404;DHT22;8311;50.158;8.642;2022-10-16T07:39:06;19.40;53.90
16404;DHT22;8311;50.158;8.642;2022-10-16T07:42:00;19.40;53.90
16404;DHT22;8311;50.158;8.642;2022-10-16T07:44:53;19.40;53.90
16404;DHT22;8311;50.158;8.642;2022-10-16T07:47:46;19.40;53.90
16404;DHT22;8311;50.158;8.642;2022-10-16T07:50:40;19.40;53.90
16404;DHT22;8311;50.158;8.642;2022-10-16T07:53:34;19.40;53.90
16404;DHT22;8311;50.158;8.642;2022-10-16T07:56:27;19.40;53.90
16404;DHT22;8311;50.158;8.642;2022-10-16T07:59:19;19.40;53.90
16404;DHT22;8311;50.158;8.642;2022-10-16T08:02:13;19.40;53.90
16404;DHT22;8311;50.158;8.642;2022-10-16T08:05:07;19.40;53.90
16404;DHT22;8311;50.158;8.642;2022-10-16T08:08:01;19.40;53.90
16404;DHT22;8311;50.158;8.642;2022-10-16T08:10:55;19.40;53.90
16404;DHT22;8311;50.158;8.642;2022-10-16T08:13:48;19.40;53.90
16404;DHT22;8311;50.158;8.642;2022-10-16T08:16:41;19.40;53.90
16404;DHT22;8311;50.158;8.642;2022-10-16T08:19:34;19.40;53.90
16404;DHT22;8311;50.158;8.642;2022-10-16T08:22:27;19.40;53.90
16404;DHT22;8311;50.158;8.642;2022-10-16T08:25:22;19.40;53.90
16404;DHT22;8311;50.158;8.642;2022-10-16T08:28:15;19.40;53.90
16404;DHT22;8311;50.158;8.642;2022-10-16T08:31:09;19.40;53.90
16404;DHT22;8311;50.158;8.642;2022-10-16T08:34:03;19.40;53.90
16404;DHT22;8311;50.158;8.642;2022-10-16T08:36:56;19.40;53.90
16404;DHT22;8311;50.158;8.642;2022-10-16T08:39:49;19.40;53.90
16404;DHT22;8311;50.158;8.642;2022-10-16T08:42:55;19.40;53.90
16404;DHT22;8311;50.158;8.642;2022-10-16T08:46:11;19.40;53.90
16404;DHT22;8311;50.158;8.642;2022-10-16T08:49:12;19.40;54.60
16404;DHT22;8311;50.158;8.642;2022-10-16T08:52:11;19.40;53.90
16404;DHT22;8311;50.158;8.642;2022-10-16T08:55:05;19.40;54.00
16404;DHT22;8311;50.158;8.642;2022-10-16T08:58:01;19.40;54.00
16404;DHT22;8311;50.158;8.642;2022-10-16T09:00:56;19.40;54.00
16404;DHT22;8311;50.158;8.642;2022-10-16T09:04:22;19.40;53.90
16404;DHT22;8311;50.158;8.642;2022-10-16T09:07:24;19.40;53.90
16404;DHT22;8311;50.158;8.642;2022-10-16T09:10:29;19.40;53.90
16404;DHT22;8311;50.158;8.642;2022-10-16T09:13:28;19.40;53.90
16404;DHT22;8311;50.158;8.642;2022-10-16T09:16:25;19.40;53.90
16404;DHT22;8311;50.158;8.642;2022-10-16T09:19:24;19.40;54.00
16404;DHT22;8311;50.158;8.642;2022-10-16T09:22:21;19.40;54.00
16404;DHT22;8311;50.158;8.642;2022-10-16T09:25:20;19.40;54.00
16404;DHT22;8311;50.158;8.642;2022-10-16T09:28:14;19.40;54.00
16404;DHT22;8311;50.158;8.642;2022-10-16T09:31:15;19.50;54.10
16404;DHT22;8311;50.158;8.642;2022-10-16T09:34:24;19.50;54.00
16404;DHT22;8311;50.158;8.642;2022-10-16T09:37:22;19.40;54.00
16404;DHT22;8311;50.158;8.642;2022-10-16T09:40:25;19.40;54.00
16404;DHT22;8311;50.158;8.642;2022-10-16T09:43:23;19.40;54.10
16404;DHT22;8311;50.158;8.642;2022-10-16T09:46:26;19.40;54.00
16404;DHT22;8311;50.158;8.642;2022-10-16T09:49:21;19.40;54.00
16404;DHT22;8311;50.158;8.642;2022-10-16T09:52:15;19.40;54.00
16404;DHT22;8311;50.158;8.642;2022-10-16T09:55:15;19.40;54.00
16404;DHT22;8311;50.158;8.642;2022-10-16T09:58:13;19.40;54.00
16404;DHT22;8311;50.158;8.642;2022-10-16T10:01:13;19.40;54.00
16404;DHT22;8311;50.158;8.642;2022-10-16T10:04:08;19.50;54.00
16404;DHT22;8311;50.158;8.642;2022-10-16T10:07:01;19.40;54.00
16404;DHT22;8311;50.158;8.642;2022-10-16T10:09:55;19.50;54.00
16404;DHT22;8311;50.158;8.642;2022-10-16T10:12:49;19.50;54.00
16404;DHT22;8311;50.158;8.642;2022-10-16T10:15:42;19.50;54.00
16404;DHT22;8311;50.158;8.642;2022-10-16T10:18:35;19.50;54.00
16404;DHT22;8311;50.158;8.642;2022-10-16T10:21:32;19.50;54.20
16404;DHT22;8311;50.158;8.642;2022-10-16T10:24:25;19.50;54.50
16404;DHT22;8311;50.158;8.642;2022-10-16T10:27:19;19.50;54.60
16404;DHT22;8311;50.158;8.642;2022-10-16T10:30:18;19.60;55.30
16404;DHT22;8311;50.158;8.642;2022-10-16T10:33:19;19.70;55.50
16404;DHT22;8311;50.158;8.642;2022-10-16T10:36:30;19.70;55.50
16404;DHT22;8311;50.158;8.642;2022-10-16T10:39:31;19.80;55.30
16404;DHT22;8311;50.158;8.642;2022-10-16T10:42:29;19.70;55.10
16404;DHT22;8311;50.158;8.642;2022-10-16T10:45:27;19.80;55.10
16404;DHT22;8311;50.158;8.642;2022-10-16T10:48:45;19.80;55.00
16404;DHT22;8311;50.158;8.642;2022-10-16T10:51:52;19.80;55.00
16404;DHT22;8311;50.158;8.642;2022-10-16T10:54:53;19.90;55.30
16404;DHT22;8311;50.158;8.642;2022-10-16T10:58:06;19.90;55.10
16404;DHT22;8311;50.158;8.642;2022-10-16T11:01:07;19.90;55.00
16404;DHT22;8311;50.158;8.642;2022-10-16T11:04:18;19.90;54.90
16404;DHT22;8311;50.158;8.642;2022-10-16T11:07:19;19.90;54.80
16404;DHT22;8311;50.158;8.642;2022-10-16T11:10:19;19.90;54.70
16404;DHT22;8311;50.158;8.642;2022-10-16T11:13:23;19.90;54.60
16404;DHT22;8311;50.158;8.642;2022-10-16T11:16:20;19.90;54.60
16404;DHT22;8311;50.158;8.642;2022-10-16T11:19:25;19.90;54.50
16404;DHT22;8311;50.158;8.642;2022-10-16T11:22:26;19.90;54.50
16404;DHT22;8311;50.158;8.642;2022-10-16T11:25:22;19.90;54.50
16404;DHT22;8311;50.158;8.642;2022-10-16T11:28:18;19.90;54.50
16404;DHT22;8311;50.158;8.642;2022-10-16T11:31:17;19.90;54.50
16404;DHT22;8311;50.158;8.642;2022-10-16T11:34:17;19.90;54.50
16404;DHT22;8311;50.158;8.642;2022-10-16T11:37:16;19.90;54.40
16404;DHT22;8311;50.158;8.642;2022-10-16T11:40:20;19.90;54.40
16404;DHT22;8311;50.158;8.642;2022-10-16T11:43:19;19.90;54.40
16404;DHT22;8311;50.158;8.642;2022-10-16T11:46:18;19.90;54.30
16404;DHT22;8311;50.158;8.642;2022-10-16T11:49:15;19.90;54.30
16404;DHT22;8311;50.158;8.642;2022-10-16T11:52:17;19.90;55.00
16404;DHT22;8311;50.158;8.642;2022-10-16T11:55:16;20.00;54.50
16404;DHT22;8311;50.158;8.642;2022-10-16T11:58:19;20.00;54.50
16404;DHT22;8311;50.158;8.642;2022-10-16T12:01:17;20.10;55.30
16404;DHT22;8311;50.158;8.642;2022-10-16T12:04:18;20.10;54.70
16404;DHT22;8311;50.158;8.642;2022-10-16T12:07:14;20.10;54.70
16404;DHT22;8311;50.158;8.642;2022-10-16T12:10:11;20.10;54.70
16404;DHT22;8311;50.158;8.642;2022-10-16T12:13:34;20.20;54.70
16404;DHT22;8311;50.158;8.642;2022-10-16T12:16:27;20.30;54.80
16404;DHT22;8311;50.158;8.642;2022-10-16T12:19:21;20.30;54.80
16404;DHT22;8311;50.158;8.642;2022-10-16T12:22:18;20.30;54.60
16404;DHT22;8311;50.158;8.642;2022-10-16T12:25:20;20.30;54.60
16404;DHT22;8311;50.158;8.642;2022-10-16T12:28:20;20.30;54.40
16404;DHT22;8311;50.158;8.642;2022-10-16T12:31:15;20.30;54.40
16404;DHT22;8311;50.158;8.642;2022-10-16T12:34:21;20.40;54.50
16404;DHT22;8311;50.158;8.642;2022-10-16T12:37:21;20.40;54.30
16404;DHT22;8311;50.158;8.642;2022-10-16T12:40:25;20.40;54.30
16404;DHT22;8311;50.158;8.642;2022-10-16T12:43:38;20.40;54.20
16404;DHT22;8311;50.158;8.642;2022-10-16T12:46:38;20.40;54.20
16404;DHT22;8311;50.158;8.642;2022-10-16T12:49:36;20.40;54.10
16404;DHT22;8311;50.158;8.642;2022-10-16T12:52:35;20.40;54.10
16404;DHT22;8311;50.158;8.642;2022-10-16T12:55:35;20.40;54.10
16404;DHT22;8311;50.158;8.642;2022-10-16T12:58:51;20.40;54.10
16404;DHT22;8311;50.158;8.642;2022-10-16T13:02:11;20.40;54.10
16404;DHT22;8311;50.158;8.642;2022-10-16T13:05:22;20.40;54.10
16404;DHT22;8311;50.158;8.642;2022-10-16T13:08:37;20.40;54.00
16404;DHT22;8311;50.158;8.642;2022-10-16T13:11:56;20.40;54.10
16404;DHT22;8311;50.158;8.642;2022-10-16T13:18:37;20.40;54.00
16404;DHT22;8311;50.158;8.642;2022-10-16T13:21:43;20.30;54.00
16404;DHT22;8311;50.158;8.642;2022-10-16T13:24:51;20.40;54.00
16404;DHT22;8311;50.158;8.642;2022-10-16T13:27:52;20.40;54.00
16404;DHT22;8311;50.158;8.642;2022-10-16T13:30:52;20.30;54.00
16404;DHT22;8311;50.158;8.642;2022-10-16T13:33:49;20.30;54.00
16404;DHT22;8311;50.158;8.642;2022-10-16T13:36:47;20.30;54.00
16404;DHT22;8311;50.158;8.642;2022-10-16T13:39:42;20.30;54.00
16404;DHT22;8311;50.158;8.642;2022-10-16T13:42:35;20.30;54.00
16404;DHT22;8311;50.158;8.642;2022-10-16T13:45:28;20.30;54.00
16404;DHT22;8311;50.158;8.642;2022-10-16T13:48:21;20.30;54.00
16404;DHT22;8311;50.158;8.642;2022-10-16T13:51:17;20.30;54.00
16404;DHT22;8311;50.158;8.642;2022-10-16T13:54:10;20.30;54.00
16404;DHT22;8311;50.158;8.642;2022-10-16T13:57:05;20.30;54.00
16404;DHT22;8311;50.158;8.642;2022-10-16T14:00:21;20.30;54.00
16404;DHT22;8311;50.158;8.642;2022-10-16T14:03:16;20.30;54.00
16404;DHT22;8311;50.158;8.642;2022-10-16T14:06:13;20.20;54.00
16404;DHT22;8311;50.158;8.642;2022-10-16T14:09:12;20.20;54.00
16404;DHT22;8311;50.158;8.642;2022-10-16T14:12:11;20.20;54.00
16404;DHT22;8311;50.158;8.642;2022-10-16T14:15:15;20.20;54.00
16404;DHT22;8311;50.158;8.642;2022-10-16T14:18:17;20.20;54.10
16404;DHT22;8311;50.158;8.642;2022-10-16T14:21:13;20.20;54.10
16404;DHT22;8311;50.158;8.642;2022-10-16T14:24:12;20.20;54.10
16404;DHT22;8311;50.158;8.642;2022-10-16T14:27:23;20.20;54.10
16404;DHT22;8311;50.158;8.642;2022-10-16T14:30:21;20.20;54.10
16404;DHT22;8311;50.158;8.642;2022-10-16T14:33:21;20.10;54.00
16404;DHT22;8311;50.158;8.642;2022-10-16T14:36:16;20.10;54.10
16404;DHT22;8311;50.158;8.642;2022-10-16T14:39:19;20.20;54.10
16404;DHT22;8311;50.158;8.642;2022-10-16T14:42:16;20.20;54.10
16404;DHT22;8311;50.158;8.642;2022-10-16T14:45:11;20.10;54.10
16404;DHT22;8311;50.158;8.642;2022-10-16T14:48:06;20.20;54.10
16404;DHT22;8311;50.158;8.642;2022-10-16T14:51:14;20.10;54.10
16404;DHT22;8311;50.158;8.642;2022-10-16T14:54:08;20.10;54.10
16404;DHT22;8311;50.158;8.642;2022-10-16T14:57:02;20.10;54.10
16404;DHT22;8311;50.158;8.642;2022-10-16T14:59:56;20.10;54.20
16404;DHT22;8311;50.158;8.642;2022-10-16T15:02:50;20.10;54.10
16404;DHT22;8311;50.158;8.642;2022-10-16T15:05:43;20.10;54.80
16404;DHT22;8311;50.158;8.642;2022-10-16T15:08:36;20.10;54.20
16404;DHT22;8311;50.158;8.642;2022-10-16T15:11:31;20.10;54.20
16404;DHT22;8311;50.158;8.642;2022-10-16T15:14:26;20.10;54.20
16404;DHT22;8311;50.158;8.642;2022-10-16T15:17:19;20.10;54.20
16404;DHT22;8311;50.158;8.642;2022-10-16T15:20:13;20.10;54.20
16404;DHT22;8311;50.158;8.642;2022-10-16T15:23:13;20.10;54.20
16404;DHT22;8311;50.158;8.642;2022-10-16T15:26:07;20.10;54.30
16404;DHT22;8311;50.158;8.642;2022-10-16T15:29:00;20.10;54.20
16404;DHT22;8311;50.158;8.642;2022-10-16T15:31:55;20.10;54.20
16404;DHT22;8311;50.158;8.642;2022-10-16T15:34:48;20.10;54.30
16404;DHT22;8311;50.158;8.642;2022-10-16T15:37:42;20.10;54.90
16404;DHT22;8311;50.158;8.642;2022-10-16T15:40:35;20.10;54.30
16404;DHT22;8311;50.158;8.642;2022-10-16T15:43:28;20.10;54.20
16404;DHT22;8311;50.158;8.642;2022-10-16T15:46:23;20.10;54.20
16404;DHT22;8311;50.158;8.642;2022-10-16T15:49:18;20.10;54.20
16404;DHT22;8311;50.158;8.642;2022-10-16T15:52:11;20.10;54.20
16404;DHT22;8311;50.158;8.642;2022-10-16T15:55:04;20.10;54.20
16404;DHT22;8311;50.158;8.642;2022-10-16T15:57:58;20.10;54.20
16404;DHT22;8311;50.158;8.642;2022-10-16T16:00:55;20.10;54.20
16404;DHT22;8311;50.158;8.642;2022-10-16T16:03:52;20.10;54.20
16404;DHT22;8311;50.158;8.642;2022-10-16T16:06:46;20.10;54.20
16404;DHT22;8311;50.158;8.642;2022-10-16T16:09:39;20.10;54.20
16404;DHT22;8311;50.158;8.642;2022-10-16T16:12:32;20.10;54.20
16404;DHT22;8311;50.158;8.642;2022-10-16T16:15:25;20.00;54.10
16404;DHT22;8311;50.158;8.642;2022-10-16T16:18:19;20.10;54.20
16404;DHT22;8311;50.158;8.642;2022-10-16T16:21:13;20.00;54.20
16404;DHT22;8311;50.158;8.642;2022-10-16T16:24:08;20.00;54.10
16404;DHT22;8311;50.158;8.642;2022-10-16T16:27:01;20.00;54.20
16404;DHT22;8311;50.158;8.642;2022-10-16T16:30:00;20.10;54.30
16404;DHT22;8311;50.158;8.642;2022-10-16T16:32:55;20.00;54.20
16404;DHT22;8311;50.158;8.642;2022-10-16T16:35:49;20.00;54.20
16404;DHT22;8311;50.158;8.642;2022-10-16T16:38:41;20.00;54.20
16404;DHT22;8311;50.158;8.642;2022-10-16T16:41:36;20.00;54.20
16404;DHT22;8311;50.158;8.642;2022-10-16T16:44:29;20.00;54.20
16404;DHT22;8311;50.158;8.642;2022-10-16T16:47:22;20.00;54.20
16404;DHT22;8311;50.158;8.642;2022-10-16T16:50:16;20.00;54.30
16404;DHT22;8311;50.158;8.642;2022-10-16T16:53:09;20.00;54.20
16404;DHT22;8311;50.158;8.642;2022-10-16T16:56:03;20.00;54.30
16404;DHT22;8311;50.158;8.642;2022-10-16T16:58:57;20.00;54.30
16404;DHT22;8311;50.158;8.642;2022-10-16T17:01:51;20.00;54.90
16404;DHT22;8311;50.158;8.642;2022-10-16T17:04:48;20.00;54.30
16404;DHT22;8311;50.158;8.642;2022-10-16T17:07:43;20.00;54.30
16404;DHT22;8311;50.158;8.642;2022-10-16T17:10:42;20.00;54.30
16404;DHT22;8311;50.158;8.642;2022-10-16T17:13:35;20.00;54.30
16404;DHT22;8311;50.158;8.642;2022-10-16T17:16:33;20.00;54.30
16404;DHT22;8311;50.158;8.642;2022-10-16T17:19:27;20.00;54.40
16404;DHT22;8311;50.158;8.642;2022-10-16T17:22:19;20.00;54.40
16404;DHT22;8311;50.158;8.642;2022-10-16T17:25:12;20.00;54.40
16404;DHT22;8311;50.158;8.642;2022-10-16T17:28:07;20.00;54.40
16404;DHT22;8311;50.158;8.642;2022-10-16T17:31:10;20.00;54.40
16404;DHT22;8311;50.158;8.642;2022-10-16T17:34:06;20.00;54.40
16404;DHT22;8311;50.158;8.642;2022-10-16T17:37:01;20.00;54.40
16404;DHT22;8311;50.158;8.642;2022-10-16T17:39:54;20.00;54.40
16404;DHT22;8311;50.158;8.642;2022-10-16T17:42:47;20.00;54.40
16404;DHT22;8311;50.158;8.642;2022-10-16T17:45:41;20.00;54.40
16404;DHT22;8311;50.158;8.642;2022-10-16T17:48:36;20.00;54.40
16404;DHT22;8311;50.158;8.642;2022-10-16T17:51:31;20.00;54.40
16404;DHT22;8311;50.158;8.642;2022-10-16T17:54:24;20.00;54.40
16404;DHT22;8311;50.158;8.642;2022-10-16T17:57:18;20.00;54.40
16404;DHT22;8311;50.158;8.642;2022-10-16T18:00:12;20.00;54.40
16404;DHT22;8311;50.158;8.642;2022-10-16T18:03:05;20.00;54.50
16404;DHT22;8311;50.158;8.642;2022-10-16T18:06:00;20.00;54.50
16404;DHT22;8311;50.158;8.642;2022-10-16T18:08:58;20.00;54.50
16404;DHT22;8311;50.158;8.642;2022-10-16T18:11:51;19.90;54.40
16404;DHT22;8311;50.158;8.642;2022-10-16T18:14:50;20.00;54.50
16404;DHT22;8311;50.158;8.642;2022-10-16T18:17:46;20.00;55.10
16404;DHT22;8311;50.158;8.642;2022-10-16T18:20:39;20.00;54.50
16404;DHT22;8311;50.158;8.642;2022-10-16T18:23:34;20.00;54.50
16404;DHT22;8311;50.158;8.642;2022-10-16T18:26:28;20.00;54.50
16404;DHT22;8311;50.158;8.642;2022-10-16T18:29:23;20.00;54.50
16404;DHT22;8311;50.158;8.642;2022-10-16T18:32:16;20.00;54.50
16404;DHT22;8311;50.158;8.642;2022-10-16T18:35:09;20.00;54.50
16404;DHT22;8311;50.158;8.642;2022-10-16T18:38:07;20.00;54.50
16404;DHT22;8311;50.158;8.642;2022-10-16T18:41:00;20.00;54.50
16404;DHT22;8311;50.158;8.642;2022-10-16T18:43:57;19.90;54.40
16404;DHT22;8311;50.158;8.642;2022-10-16T18:46:50;19.90;54.40
16404;DHT22;8311;50.158;8.642;2022-10-16T18:49:47;20.00;54.50
16404;DHT22;8311;50.158;8.642;2022-10-16T18:52:46;20.00;54.50
16404;DHT22;8311;50.158;8.642;2022-10-16T18:55:39;20.00;54.50